Time;durP1;ratioP1;P1;durP2;ratioP2;P2;SDS_P1;SDS_P2;PMS_P1;PMS_P2;Temp;Humidity;BMP_temperature;BMP_pressure;BME280_temperature;BME280_humidity;BME280_pressure;Samples;Min_cycle;Max_cycle;Signal;HPM_P1;HPM_P2
2022/09/11 00:02:17;;;;;;;6.95;6.25;;;;;;;;;;5065085;28;20100;-79
2022/09/11 00:04:43;;;;;;;6.38;5.78;;;;;;;;;;5088512;28;20075;-80
2022/09/11 00:07:09;;;;;;;6.85;6.25;;;;;;;;;;5070642;28;20079;-80
2022/09/11 00:09:36;;;;;;;7.45;5.95;;;;;;;;;;5063657;28;20051;-80
2022/09/11 00:12:02;;;;;;;6.88;5.80;;;;;;;;;;5088386;28;20388;-80
2022/09/11 00:14:29;;;;;;;6.22;5.55;;;;;;;;;;5083450;28;20042;-79
2022/09/11 00:16:55;;;;;;;6.13;5.50;;;;;;;;;;5083344;28;20045;-79
2022/09/11 00:19:21;;;;;;;6.93;5.90;;;;;;;;;;5084694;28;20071;-79
2022/09/11 00:21:49;;;;;;;6.95;5.20;;;;;;;;;;5069235;28;20400;-79
2022/09/11 00:24:15;;;;;;;7.07;5.72;;;;;;;;;;5085488;28;20076;-79
2022/09/11 00:26:41;;;;;;;9.40;7.75;;;;;;;;;;5070588;28;20040;-80
2022/09/11 00:29:08;;;;;;;10.15;8.55;;;;;;;;;;5069223;28;20062;-80
2022/09/11 00:31:34;;;;;;;9.13;8.23;;;;;;;;;;5082929;28;20067;-80
2022/09/11 00:34:00;;;;;;;9.43;8.43;;;;;;;;;;5070046;28;20483;-80
2022/09/11 00:36:28;;;;;;;9.13;7.88;;;;;;;;;;5067560;28;20134;-80
2022/09/11 00:38:55;;;;;;;8.88;7.38;;;;;;;;;;5066839;28;20586;-80
2022/09/11 00:41:29;;;;;;;9.98;7.43;;;;;;;;;;5085102;28;20052;-80
2022/09/11 00:44:27;;;;;;;8.98;7.15;;;;;;;;;;5067185;28;20036;-80
2022/09/11 00:46:58;;;;;;;7.07;6.30;;;;;;;;;;5069868;28;20058;-80
2022/09/11 00:49:24;;;;;;;7.18;6.47;;;;;;;;;;5086295;28;20055;-79
2022/09/11 00:51:52;;;;;;;7.57;6.20;;;;;;;;;;5083777;28;20052;-80
2022/09/11 00:54:21;;;;;;;7.88;6.55;;;;;;;;;;5067823;28;20059;-80
2022/09/11 00:56:47;;;;;;;7.53;6.45;;;;;;;;;;5066613;28;20048;-80
2022/09/11 00:59:13;;;;;;;8.13;6.07;;;;;;;;;;5087602;28;20085;-79
2022/09/11 01:01:40;;;;;;;6.50;5.90;;;;;;;;;;5065238;28;20487;-80
2022/09/11 01:04:07;;;;;;;6.43;5.82;;;;;;;;;;5086594;28;20369;-80
2022/09/11 01:06:33;;;;;;;6.75;5.53;;;;;;;;;;5064882;28;20048;-80
2022/09/11 01:08:59;;;;;;;6.75;5.22;;;;;;;;;;5086539;28;20036;-79
2022/09/11 01:11:34;;;;;;;5.93;5.05;;;;;;;;;;5062859;28;21038;-79
2022/09/11 01:14:03;;;;;;;5.43;4.93;;;;;;;;;;5084188;28;20044;-79
2022/09/11 01:16:37;;;;;;;5.90;5.30;;;;;;;;;;5083639;28;20069;-79
2022/09/11 01:19:23;;;;;;;7.50;5.10;;;;;;;;;;5070472;28;20040;-80
2022/09/11 01:22:04;;;;;;;6.15;4.95;;;;;;;;;;5085505;28;20411;-80
2022/09/11 01:24:33;;;;;;;6.68;4.90;;;;;;;;;;5066686;28;20131;-80
2022/09/11 01:27:00;;;;;;;7.78;5.55;;;;;;;;;;5082224;28;20040;-80
2022/09/11 01:29:39;;;;;;;5.63;5.10;;;;;;;;;;5068243;28;20495;-80
2022/09/11 01:32:13;;;;;;;5.60;5.10;;;;;;;;;;5069044;28;20036;-80
2022/09/11 01:34:41;;;;;;;5.38;4.88;;;;;;;;;;5086992;28;20044;-80
2022/09/11 01:37:10;;;;;;;5.35;4.85;;;;;;;;;;5067857;28;20135;-80
2022/09/11 01:39:45;;;;;;;5.97;4.70;;;;;;;;;;5060975;28;20119;-80
2022/09/11 01:42:16;;;;;;;5.30;4.80;;;;;;;;;;5082588;28;20558;-80
2022/09/11 01:44:48;;;;;;;5.30;4.50;;;;;;;;;;5068214;28;20114;-80
2022/09/11 01:47:16;;;;;;;5.63;5.00;;;;;;;;;;5068223;28;20047;-80
2022/09/11 01:49:42;;;;;;;4.85;4.45;;;;;;;;;;5085471;28;20056;-79
2022/09/11 01:52:10;;;;;;;5.47;4.97;;;;;;;;;;5068455;28;20040;-80
2022/09/11 01:54:42;;;;;;;6.82;5.05;;;;;;;;;;5067976;28;20047;-79
2022/09/11 01:57:12;;;;;;;6.03;5.40;;;;;;;;;;5069799;28;20056;-80
2022/09/11 01:59:47;;;;;;;5.70;5.20;;;;;;;;;;5063222;28;20190;-80
2022/09/11 02:02:15;;;;;;;5.43;4.93;;;;;;;;;;5083398;28;20115;-79
2022/09/11 02:04:45;;;;;;;5.60;5.00;;;;;;;;;;5065462;28;20044;-79
2022/09/11 02:07:20;;;;;;;5.30;4.70;;;;;;;;;;5066925;28;20059;-80
2022/09/11 02:09:53;;;;;;;6.45;4.90;;;;;;;;;;5059460;28;20074;-80
2022/09/11 02:12:20;;;;;;;5.32;4.82;;;;;;;;;;5070075;28;20395;-80
2022/09/11 02:14:47;;;;;;;6.80;4.50;;;;;;;;;;5083447;28;21947;-79
2022/09/11 02:17:25;;;;;;;5.50;4.97;;;;;;;;;;5067243;28;20043;-80
2022/09/11 02:19:57;;;;;;;7.05;4.95;;;;;;;;;;5069820;28;20046;-80
2022/09/11 02:22:23;;;;;;;5.75;4.50;;;;;;;;;;5085609;28;20564;-80
2022/09/11 02:24:50;;;;;;;5.78;5.20;;;;;;;;;;5081765;28;20262;-79
2022/09/11 02:27:19;;;;;;;5.50;5.00;;;;;;;;;;5084900;28;20488;-79
2022/09/11 02:29:45;;;;;;;6.65;5.05;;;;;;;;;;5082848;28;20040;-80
2022/09/11 02:32:11;;;;;;;6.03;5.00;;;;;;;;;;5086841;28;20483;-79
2022/09/11 02:34:39;;;;;;;6.05;5.32;;;;;;;;;;5070418;28;20540;-80
2022/09/11 02:37:04;;;;;;;6.80;5.25;;;;;;;;;;5074395;28;20048;-80
2022/09/11 02:39:53;;;;;;;5.82;5.30;;;;;;;;;;5086635;28;20123;-80
2022/09/11 02:42:31;;;;;;;5.18;4.68;;;;;;;;;;5084928;28;20046;-80
2022/09/11 02:45:16;;;;;;;5.35;4.85;;;;;;;;;;5072975;28;20094;-79
2022/09/11 02:47:47;;;;;;;6.32;4.85;;;;;;;;;;5069932;28;20174;-80
2022/09/11 02:50:21;;;;;;;6.65;4.97;;;;;;;;;;5093393;28;20101;-80
2022/09/11 02:52:47;;;;;;;4.80;4.40;;;;;;;;;;5084908;28;20128;-79
2022/09/11 02:55:21;;;;;;;5.28;4.85;;;;;;;;;;5070872;28;20506;-80
2022/09/11 02:58:01;;;;;;;5.63;5.03;;;;;;;;;;5073087;28;20044;-80
2022/09/11 03:00:27;;;;;;;6.43;5.18;;;;;;;;;;5088382;28;20483;-80
2022/09/11 03:02:54;;;;;;;5.28;4.78;;;;;;;;;;5071748;28;20040;-80
2022/09/11 03:05:21;;;;;;;5.38;4.88;;;;;;;;;;5067997;28;21875;-80
2022/09/11 03:07:47;;;;;;;5.95;4.95;;;;;;;;;;5070593;28;20177;-80
2022/09/11 03:10:13;;;;;;;6.65;4.93;;;;;;;;;;5091643;28;20036;-80
2022/09/11 03:12:40;;;;;;;5.88;5.38;;;;;;;;;;5064244;28;20028;-80
2022/09/11 03:15:08;;;;;;;6.22;5.63;;;;;;;;;;5071558;28;20514;-80
2022/09/11 03:17:34;;;;;;;5.35;4.85;;;;;;;;;;5071729;28;20043;-80
2022/09/11 03:20:00;;;;;;;5.40;4.90;;;;;;;;;;5087689;28;20044;-79
2022/09/11 03:22:26;;;;;;;6.60;5.35;;;;;;;;;;5070825;28;20064;-80
2022/09/11 03:24:52;;;;;;;5.82;5.22;;;;;;;;;;5071502;28;20043;-80
2022/09/11 03:27:20;;;;;;;5.40;4.90;;;;;;;;;;5089926;28;20036;-79
2022/09/11 03:29:46;;;;;;;5.88;5.18;;;;;;;;;;5066638;28;20806;-80
2022/09/11 03:32:12;;;;;;;5.30;4.80;;;;;;;;;;5071289;28;20535;-79
2022/09/11 03:34:38;;;;;;;5.45;4.95;;;;;;;;;;5072662;28;20484;-79
2022/09/11 03:37:04;;;;;;;6.00;5.40;;;;;;;;;;5069714;28;20096;-80
2022/09/11 03:39:30;;;;;;;5.80;5.20;;;;;;;;;;5069861;28;20044;-79
2022/09/11 03:41:57;;;;;;;6.50;5.20;;;;;;;;;;5085723;28;20048;-79
2022/09/11 03:44:23;;;;;;;5.68;5.18;;;;;;;;;;5085570;28;20046;-79
2022/09/11 03:46:49;;;;;;;6.00;5.40;;;;;;;;;;5089707;28;20396;-79
2022/09/11 03:49:15;;;;;;;6.80;5.63;;;;;;;;;;5065600;28;20053;-80
2022/09/11 03:51:41;;;;;;;5.20;4.80;;;;;;;;;;5051843;28;20062;-80
2022/09/11 03:54:07;;;;;;;5.93;5.43;;;;;;;;;;5060392;28;20067;-80
2022/09/11 03:56:33;;;;;;;6.10;5.50;;;;;;;;;;5067808;28;20064;-79
2022/09/11 03:58:59;;;;;;;6.72;5.63;;;;;;;;;;5068183;28;20789;-79
2022/09/11 04:01:25;;;;;;;6.05;5.55;;;;;;;;;;5062456;28;20033;-80
2022/09/11 04:03:51;;;;;;;7.13;5.53;;;;;;;;;;5066099;28;20052;-80
2022/09/11 04:06:17;;;;;;;6.85;5.47;;;;;;;;;;5065811;28;20044;-79
2022/09/11 04:08:44;;;;;;;6.03;5.18;;;;;;;;;;5068601;28;20043;-79
2022/09/11 04:11:10;;;;;;;6.00;5.35;;;;;;;;;;5068826;28;20044;-80
2022/09/11 04:13:37;;;;;;;5.53;5.03;;;;;;;;;;5065991;28;20085;-80
2022/09/11 04:16:09;;;;;;;5.40;4.90;;;;;;;;;;5064668;28;20484;-79
2022/09/11 04:18:37;;;;;;;6.35;5.55;;;;;;;;;;5067510;28;20105;-79
2022/09/11 04:21:07;;;;;;;6.10;5.50;;;;;;;;;;5067010;28;20477;-79
2022/09/11 04:23:33;;;;;;;6.20;5.35;;;;;;;;;;5059250;28;20450;-80
2022/09/11 04:25:59;;;;;;;5.50;5.00;;;;;;;;;;5065541;28;20056;-79
2022/09/11 04:28:28;;;;;;;6.00;5.20;;;;;;;;;;5065721;28;20071;-79
2022/09/11 04:30:56;;;;;;;5.93;5.32;;;;;;;;;;5064928;28;20479;-79
2022/09/11 04:33:23;;;;;;;6.07;5.57;;;;;;;;;;5062282;28;20055;-79
2022/09/11 04:35:49;;;;;;;6.13;5.53;;;;;;;;;;5067688;28;20504;-79
2022/09/11 04:38:15;;;;;;;7.57;5.53;;;;;;;;;;5068628;28;20427;-79
2022/09/11 04:40:41;;;;;;;5.40;5.00;;;;;;;;;;5064697;28;20044;-78
2022/09/11 04:43:10;;;;;;;5.45;4.85;;;;;;;;;;5066745;28;20054;-79
2022/09/11 04:45:36;;;;;;;6.25;5.25;;;;;;;;;;5062200;28;20080;-79
2022/09/11 04:48:02;;;;;;;6.43;5.75;;;;;;;;;;5062533;28;20383;-80
2022/09/11 04:50:29;;;;;;;6.28;5.68;;;;;;;;;;5079868;28;20052;-80
2022/09/11 04:52:55;;;;;;;5.88;5.28;;;;;;;;;;5083131;28;20621;-80
2022/09/11 04:55:21;;;;;;;5.97;5.38;;;;;;;;;;5069187;28;20059;-79
2022/09/11 04:57:47;;;;;;;6.35;5.30;;;;;;;;;;5070346;28;20078;-80
2022/09/11 05:00:14;;;;;;;5.45;4.95;;;;;;;;;;5083518;28;20093;-80
2022/09/11 05:02:40;;;;;;;6.40;5.75;;;;;;;;;;5088440;28;20055;-80
2022/09/11 05:05:07;;;;;;;7.38;5.68;;;;;;;;;;5083672;28;20051;-80
2022/09/11 05:07:34;;;;;;;5.55;5.05;;;;;;;;;;5066833;28;20441;-80
2022/09/11 05:10:03;;;;;;;5.57;5.07;;;;;;;;;;5057030;28;20059;-80
2022/09/11 05:12:30;;;;;;;6.38;5.10;;;;;;;;;;5065248;28;20066;-79
2022/09/11 05:14:56;;;;;;;5.32;4.88;;;;;;;;;;5068480;28;20052;-79
2022/09/11 05:17:23;;;;;;;6.03;5.53;;;;;;;;;;5065554;28;20048;-79
2022/09/11 05:19:49;;;;;;;5.43;5.00;;;;;;;;;;5087888;28;20044;-80
2022/09/11 05:22:15;;;;;;;6.70;4.70;;;;;;;;;;5067684;28;20040;-80
2022/09/11 05:24:41;;;;;;;6.00;4.82;;;;;;;;;;5065446;28;20129;-79
2022/09/11 05:27:08;;;;;;;6.32;5.10;;;;;;;;;;5086384;28;20048;-80
2022/09/11 05:29:34;;;;;;;5.40;4.90;;;;;;;;;;5086117;28;20055;-80
2022/09/11 05:32:01;;;;;;;5.20;4.70;;;;;;;;;;5086252;28;20051;-80
2022/09/11 05:34:28;;;;;;;7.45;5.03;;;;;;;;;;5073178;28;20047;-80
2022/09/11 05:36:56;;;;;;;4.97;4.55;;;;;;;;;;5089564;28;20036;-80
2022/09/11 05:39:22;;;;;;;7.35;4.72;;;;;;;;;;5066772;28;20052;-79
2022/09/11 05:41:52;;;;;;;6.60;5.20;;;;;;;;;;5067090;28;20119;-80
2022/09/11 05:44:18;;;;;;;7.03;5.57;;;;;;;;;;5066317;28;20040;-80
2022/09/11 05:46:45;;;;;;;5.47;4.90;;;;;;;;;;5064466;28;20054;-79
2022/09/11 05:49:11;;;;;;;6.05;5.45;;;;;;;;;;5086481;28;22340;-80
2022/09/11 05:51:39;;;;;;;5.88;5.28;;;;;;;;;;5069259;28;20131;-80
2022/09/11 05:54:06;;;;;;;5.60;5.00;;;;;;;;;;5064305;28;20076;-80
2022/09/11 05:56:31;;;;;;;5.80;5.13;;;;;;;;;;5064698;28;20052;-80
2022/09/11 05:58:57;;;;;;;6.80;5.80;;;;;;;;;;5059710;28;20122;-79
2022/09/11 06:01:25;;;;;;;6.15;5.55;;;;;;;;;;5068387;28;20059;-79
2022/09/11 06:03:51;;;;;;;6.40;5.80;;;;;;;;;;5066431;28;20089;-79
2022/09/11 06:06:18;;;;;;;7.35;5.93;;;;;;;;;;5083650;28;20048;-80
2022/09/11 06:08:46;;;;;;;5.70;5.20;;;;;;;;;;5091526;28;20090;-79
2022/09/11 06:11:13;;;;;;;6.63;5.90;;;;;;;;;;5067193;28;20454;-80
2022/09/11 06:13:40;;;;;;;6.90;6.00;;;;;;;;;;5070256;28;20097;-80
2022/09/11 06:16:13;;;;;;;6.85;6.18;;;;;;;;;;5088377;28;20044;-80
2022/09/11 06:18:39;;;;;;;6.18;5.68;;;;;;;;;;5069952;28;20040;-80
2022/09/11 06:21:06;;;;;;;6.97;6.30;;;;;;;;;;5067567;28;20133;-80
2022/09/11 06:23:37;;;;;;;6.60;5.85;;;;;;;;;;5067987;28;20105;-80
2022/09/11 06:26:08;;;;;;;6.72;6.07;;;;;;;;;;5091378;28;20052;-80
2022/09/11 06:28:35;;;;;;;7.32;6.07;;;;;;;;;;5069032;28;20051;-80
2022/09/11 06:31:02;;;;;;;6.78;6.15;;;;;;;;;;5090011;28;20117;-80
2022/09/11 06:33:32;;;;;;;6.60;6.00;;;;;;;;;;5068582;28;20055;-79
2022/09/11 06:36:03;;;;;;;6.90;6.25;;;;;;;;;;5091022;28;20106;-80
2022/09/11 06:38:30;;;;;;;10.57;7.10;;;;;;;;;;5070583;28;20048;-79
2022/09/11 06:40:56;;;;;;;7.45;6.65;;;;;;;;;;5071593;28;20063;-80
2022/09/11 06:43:22;;;;;;;6.97;6.28;;;;;;;;;;5068835;28;20100;-80
2022/09/11 06:45:49;;;;;;;7.07;6.40;;;;;;;;;;5091183;28;20086;-79
2022/09/11 06:48:21;;;;;;;7.82;6.63;;;;;;;;;;5065476;28;20043;-80
2022/09/11 06:50:47;;;;;;;6.60;6.00;;;;;;;;;;5066402;28;20055;-79
2022/09/11 06:53:14;;;;;;;7.15;6.45;;;;;;;;;;5071665;28;20044;-79
2022/09/11 06:55:40;;;;;;;7.97;6.32;;;;;;;;;;5069052;28;20097;-79
2022/09/11 06:58:09;;;;;;;7.72;6.35;;;;;;;;;;5071493;28;20396;-79
2022/09/11 07:00:39;;;;;;;7.70;5.45;;;;;;;;;;5067157;28;20040;-79
2022/09/11 07:03:06;;;;;;;5.72;5.03;;;;;;;;;;5070875;28;20396;-79
2022/09/11 07:05:32;;;;;;;6.07;5.07;;;;;;;;;;5069061;28;20188;-79
2022/09/11 07:07:58;;;;;;;6.60;4.57;;;;;;;;;;5082302;28;20569;-79
2022/09/11 07:10:24;;;;;;;6.13;4.30;;;;;;;;;;5086794;28;20056;-79
2022/09/11 07:12:54;;;;;;;4.88;4.10;;;;;;;;;;5090236;28;20044;-79
2022/09/11 07:15:20;;;;;;;4.68;4.20;;;;;;;;;;5063953;28;20130;-78
2022/09/11 07:17:47;;;;;;;4.70;4.30;;;;;;;;;;5069313;28;20453;-78
2022/09/11 07:20:13;;;;;;;4.63;4.22;;;;;;;;;;5082056;28;20059;-79
2022/09/11 07:22:39;;;;;;;4.10;3.70;;;;;;;;;;5073181;28;20040;-78
2022/09/11 07:25:06;;;;;;;4.50;4.10;;;;;;;;;;5072270;28;20460;-79
2022/09/11 07:27:32;;;;;;;5.53;4.40;;;;;;;;;;5068877;28;20040;-78
2022/09/11 07:29:59;;;;;;;5.85;3.80;;;;;;;;;;5063725;28;20044;-79
2022/09/11 07:32:26;;;;;;;4.47;4.07;;;;;;;;;;5069801;28;20122;-79
2022/09/11 07:34:52;;;;;;;4.43;3.78;;;;;;;;;;5070298;28;20071;-79
2022/09/11 07:37:18;;;;;;;3.60;3.30;;;;;;;;;;5085843;28;20127;-79
2022/09/11 07:39:44;;;;;;;4.45;3.72;;;;;;;;;;5088791;28;20417;-79
2022/09/11 07:42:10;;;;;;;4.07;3.75;;;;;;;;;;5063148;28;20040;-79
2022/09/11 07:44:36;;;;;;;4.63;4.20;;;;;;;;;;5085441;28;20040;-79
2022/09/11 07:47:03;;;;;;;5.78;3.90;;;;;;;;;;5068169;28;20039;-79
2022/09/11 07:49:29;;;;;;;6.05;3.72;;;;;;;;;;5065914;28;20056;-79
2022/09/11 07:51:55;;;;;;;4.00;3.70;;;;;;;;;;5081960;28;20072;-79
2022/09/11 07:54:22;;;;;;;5.82;3.88;;;;;;;;;;5086480;28;20040;-79
2022/09/11 07:56:48;;;;;;;4.95;4.00;;;;;;;;;;5088840;28;20093;-79
2022/09/11 07:59:16;;;;;;;4.28;3.97;;;;;;;;;;5070359;28;20458;-79
2022/09/11 08:01:43;;;;;;;5.22;3.70;;;;;;;;;;5062931;28;20052;-79
2022/09/11 08:04:10;;;;;;;6.60;4.00;;;;;;;;;;5089200;28;20127;-79
2022/09/11 08:06:37;;;;;;;4.38;3.88;;;;;;;;;;5064468;28;20500;-80
2022/09/11 08:09:07;;;;;;;4.88;4.30;;;;;;;;;;5068451;28;20040;-79
2022/09/11 08:11:38;;;;;;;7.25;5.85;;;;;;;;;;5063668;28;20048;-79
2022/09/11 08:14:06;;;;;;;5.13;4.57;;;;;;;;;;5070260;28;20048;-78
2022/09/11 08:16:34;;;;;;;4.35;3.95;;;;;;;;;;5066507;28;20491;-79
2022/09/11 08:19:01;;;;;;;4.45;4.05;;;;;;;;;;5068462;28;20483;-79
2022/09/11 08:21:27;;;;;;;4.13;3.40;;;;;;;;;;5088468;28;20052;-78
2022/09/11 08:23:53;;;;;;;4.00;3.60;;;;;;;;;;5086618;28;20164;-75
2022/09/11 08:26:20;;;;;;;4.75;3.97;;;;;;;;;;5088098;28;20401;-81
2022/09/11 08:28:49;;;;;;;6.40;4.30;;;;;;;;;;5072759;28;20044;-86
2022/09/11 08:31:16;;;;;;;5.50;4.00;;;;;;;;;;5086288;28;20051;-82
2022/09/11 08:33:42;;;;;;;4.80;4.00;;;;;;;;;;5090723;28;20040;-82
2022/09/11 08:36:09;;;;;;;3.72;3.42;;;;;;;;;;5085812;28;20051;-82
2022/09/11 08:38:36;;;;;;;5.78;4.03;;;;;;;;;;5084213;28;20064;-82
2022/09/11 08:41:17;;;;;;;4.40;3.63;;;;;;;;;;5084471;28;20056;-76
2022/09/11 08:43:45;;;;;;;4.65;3.50;;;;;;;;;;5065948;28;20036;-79
2022/09/11 08:46:12;;;;;;;4.25;3.80;;;;;;;;;;5070158;28;20087;-78
2022/09/11 08:48:59;;;;;;;5.40;3.80;;;;;;;;;;5066473;28;20582;-78
2022/09/11 08:51:25;;;;;;;4.72;4.30;;;;;;;;;;5072269;28;20053;-84
2022/09/11 08:53:51;;;;;;;4.45;3.90;;;;;;;;;;5062352;28;20553;-81
2022/09/11 08:56:21;;;;;;;4.95;3.83;;;;;;;;;;5083267;28;20508;-81
2022/09/11 08:59:06;;;;;;;4.20;3.78;;;;;;;;;;5064428;28;20064;-76
2022/09/11 09:01:55;;;;;;;4.63;3.85;;;;;;;;;;5072634;28;20052;-77
2022/09/11 09:04:40;;;;;;;4.18;3.50;;;;;;;;;;5029277;28;20152;-77
2022/09/11 09:07:21;;;;;;;3.70;3.40;;;;;;;;;;5085755;28;20050;-77
2022/09/11 09:09:50;;;;;;;5.72;3.85;;;;;;;;;;5062897;28;20127;-77
2022/09/11 09:12:17;;;;;;;4.07;3.50;;;;;;;;;;5071271;28;20036;-77
2022/09/11 09:15:02;;;;;;;3.78;3.40;;;;;;;;;;5073758;28;20051;-77
2022/09/11 09:17:32;;;;;;;6.40;3.80;;;;;;;;;;5084018;28;20040;-77
2022/09/11 09:20:01;;;;;;;3.85;3.55;;;;;;;;;;5070929;28;20503;-77
2022/09/11 09:22:42;;;;;;;3.72;3.30;;;;;;;;;;5064958;28;20499;-77
2022/09/11 09:25:13;;;;;;;5.30;3.80;;;;;;;;;;5058888;28;20544;-77
2022/09/11 09:27:45;;;;;;;3.55;3.25;;;;;;;;;;5075969;28;20511;-76
2022/09/11 09:30:16;;;;;;;3.80;3.50;;;;;;;;;;5082492;28;20077;-77
2022/09/11 09:32:49;;;;;;;3.60;3.30;;;;;;;;;;5069056;28;20089;-77
2022/09/11 09:35:18;;;;;;;4.45;3.55;;;;;;;;;;5073734;28;20036;-76
2022/09/11 09:37:44;;;;;;;4.10;3.70;;;;;;;;;;5059073;28;20052;-77
2022/09/11 09:40:14;;;;;;;4.00;3.67;;;;;;;;;;5059835;28;20475;-77
2022/09/11 09:43:01;;;;;;;3.97;3.47;;;;;;;;;;5073221;28;20040;-77
2022/09/11 09:45:37;;;;;;;4.47;3.80;;;;;;;;;;5082553;28;20139;-77
2022/09/11 09:48:05;;;;;;;4.95;3.70;;;;;;;;;;5072990;28;20101;-77
2022/09/11 09:50:33;;;;;;;4.10;3.80;;;;;;;;;;5071360;28;20052;-76
2022/09/11 09:53:28;;;;;;;4.13;3.75;;;;;;;;;;5053435;28;20091;-77
2022/09/11 09:55:55;;;;;;;5.60;3.50;;;;;;;;;;5061270;28;20056;-74
2022/09/11 09:58:26;;;;;;;4.05;3.45;;;;;;;;;;5081710;28;21656;-78
2022/09/11 10:00:52;;;;;;;4.57;3.65;;;;;;;;;;5068995;28;20143;-80
2022/09/11 10:03:20;;;;;;;4.05;3.65;;;;;;;;;;5071085;28;20123;-80
2022/09/11 10:05:47;;;;;;;5.32;3.70;;;;;;;;;;5069544;28;20094;-80
2022/09/11 10:08:19;;;;;;;5.57;3.70;;;;;;;;;;5068351;28;20051;-80
2022/09/11 10:10:56;;;;;;;3.95;3.55;;;;;;;;;;5065009;28;20094;-79
2022/09/11 10:13:24;;;;;;;5.05;3.80;;;;;;;;;;5086817;28;20052;-79
2022/09/11 10:15:51;;;;;;;5.88;3.80;;;;;;;;;;5088161;28;20579;-80
2022/09/11 10:21:10;;;;;;;4.65;3.90;;;;;;;;;;5079855;28;20770;-79
2022/09/11 10:23:49;;;;;;;3.63;3.33;;;;;;;;;;5061864;28;20101;-79
2022/09/11 10:26:34;;;;;;;4.90;3.60;;;;;;;;;;5066073;28;20052;-79
2022/09/11 10:29:23;;;;;;;5.28;3.83;;;;;;;;;;5086687;28;20113;-80
2022/09/11 10:32:12;;;;;;;4.13;3.65;;;;;;;;;;5058828;28;20452;-80
2022/09/11 10:34:39;;;;;;;4.57;3.50;;;;;;;;;;5085958;28;20051;-81
2022/09/11 10:37:14;;;;;;;5.05;3.53;;;;;;;;;;5088480;28;20500;-81
2022/09/11 10:39:41;;;;;;;3.70;3.40;;;;;;;;;;5074135;28;20065;-81
2022/09/11 10:42:16;;;;;;;4.20;3.83;;;;;;;;;;5062294;28;20109;-79
2022/09/11 10:44:43;;;;;;;4.63;3.72;;;;;;;;;;5086539;28;20052;-79
2022/09/11 10:47:15;;;;;;;3.88;3.17;;;;;;;;;;5085674;28;20044;-79
2022/09/11 10:49:41;;;;;;;4.20;3.75;;;;;;;;;;5069853;28;20056;-78
2022/09/11 10:52:07;;;;;;;4.03;3.63;;;;;;;;;;5066665;28;20059;-79
2022/09/11 10:54:44;;;;;;;3.92;3.63;;;;;;;;;;5089652;28;20040;-79
2022/09/11 10:57:22;;;;;;;4.05;3.22;;;;;;;;;;5068279;28;20044;-79
2022/09/11 11:00:09;;;;;;;3.90;3.60;;;;;;;;;;5087436;28;20093;-79
2022/09/11 11:02:38;;;;;;;5.25;3.63;;;;;;;;;;5075850;28;20047;-79
2022/09/11 11:05:13;;;;;;;4.00;3.60;;;;;;;;;;5067103;28;20159;-80
2022/09/11 11:07:45;;;;;;;4.05;3.40;;;;;;;;;;5071089;28;20048;-80
2022/09/11 11:10:43;;;;;;;7.50;3.97;;;;;;;;;;5091902;28;20048;-80
2022/09/11 11:13:29;;;;;;;3.70;3.40;;;;;;;;;;5037947;28;20055;-79
2022/09/11 11:16:15;;;;;;;3.50;3.20;;;;;;;;;;5074051;28;20047;-80
2022/09/11 11:18:47;;;;;;;3.17;2.97;;;;;;;;;;5065333;28;20054;-78
2022/09/11 11:21:22;;;;;;;3.73;3.30;;;;;;;;;;5071218;28;20048;-79
2022/09/11 11:23:51;;;;;;;3.97;3.50;;;;;;;;;;5066227;28;20040;-79
2022/09/11 11:26:17;;;;;;;4.70;3.95;;;;;;;;;;5072136;28;20040;-79
2022/09/11 11:28:47;;;;;;;4.90;3.83;;;;;;;;;;5094423;28;20036;-80
2022/09/11 11:31:16;;;;;;;4.30;3.47;;;;;;;;;;5068665;28;20039;-80
2022/09/11 11:33:51;;;;;;;3.67;3.38;;;;;;;;;;5064221;28;20131;-80
2022/09/11 11:36:17;;;;;;;4.47;3.30;;;;;;;;;;5086359;28;20051;-81
2022/09/11 11:38:48;;;;;;;3.83;3.33;;;;;;;;;;5075871;28;20443;-81
2022/09/11 11:41:18;;;;;;;4.40;3.30;;;;;;;;;;5088580;28;20044;-80
2022/09/11 11:43:44;;;;;;;3.88;3.30;;;;;;;;;;5088815;28;20048;-81
2022/09/11 11:46:22;;;;;;;3.95;3.20;;;;;;;;;;5086109;28;20415;-80
2022/09/11 11:48:48;;;;;;;3.75;3.20;;;;;;;;;;5088381;28;22615;-80
2022/09/11 11:51:17;;;;;;;3.92;3.00;;;;;;;;;;5091079;28;20055;-80
2022/09/11 11:53:50;;;;;;;4.60;3.50;;;;;;;;;;5062957;28;20052;-79
2022/09/11 11:56:28;;;;;;;3.72;3.45;;;;;;;;;;5085516;28;20036;-80
2022/09/11 11:59:02;;;;;;;4.57;3.53;;;;;;;;;;5092703;28;20048;-80
2022/09/11 12:01:58;;;;;;;4.57;3.20;;;;;;;;;;5088286;28;20407;-80
2022/09/11 12:04:29;;;;;;;3.92;3.50;;;;;;;;;;4968408;28;20062;-80
2022/09/11 12:06:56;;;;;;;4.72;3.17;;;;;;;;;;5068112;28;20097;-81
2022/09/11 12:09:22;;;;;;;3.35;3.05;;;;;;;;;;5081038;28;20114;-82
2022/09/11 12:11:50;;;;;;;4.30;2.80;;;;;;;;;;5083245;28;20055;-81
2022/09/11 12:14:32;;;;;;;3.50;3.20;;;;;;;;;;5090815;28;20508;-80
2022/09/11 12:17:15;;;;;;;3.10;2.80;;;;;;;;;;5064121;28;20040;-80
2022/09/11 12:20:02;;;;;;;3.75;3.35;;;;;;;;;;5091359;28;20056;-81
2022/09/11 12:22:36;;;;;;;4.05;3.00;;;;;;;;;;5082019;28;20080;-81
2022/09/11 12:25:02;;;;;;;3.53;3.22;;;;;;;;;;5080967;28;20051;-81
2022/09/11 12:27:35;;;;;;;3.40;3.03;;;;;;;;;;5084490;28;20083;-86
2022/09/11 12:30:27;;;;;;;4.17;3.43;;;;;;;;;;5070077;28;20039;-85
2022/09/11 12:32:59;;;;;;;3.23;3.00;;;;;;;;;;5060539;28;20048;-80
2022/09/11 12:35:44;;;;;;;4.82;3.30;;;;;;;;;;5064763;28;20130;-79
2022/09/11 12:38:28;;;;;;;3.30;2.90;;;;;;;;;;5067318;28;20066;-81
2022/09/11 12:41:00;;;;;;;5.50;3.20;;;;;;;;;;5084390;28;20053;-82
2022/09/11 12:43:36;;;;;;;5.18;2.90;;;;;;;;;;5062851;28;20089;-81
2022/09/11 12:46:06;;;;;;;4.20;3.15;;;;;;;;;;5085225;28;20496;-82
2022/09/11 12:48:37;;;;;;;3.53;3.00;;;;;;;;;;5068369;28;20093;-81
2022/09/11 12:51:05;;;;;;;3.58;3.10;;;;;;;;;;5068045;28;20055;-81
2022/09/11 12:53:32;;;;;;;3.22;2.92;;;;;;;;;;5071759;28;20048;-82
2022/09/11 12:56:06;;;;;;;3.30;3.00;;;;;;;;;;5070140;28;20129;-81
2022/09/11 12:58:40;;;;;;;3.30;3.00;;;;;;;;;;5065511;28;20243;-81
2022/09/11 13:01:12;;;;;;;5.63;2.80;;;;;;;;;;5088016;28;20047;-82
2022/09/11 13:03:52;;;;;;;2.70;2.50;;;;;;;;;;5084871;28;20040;-81
2022/09/11 13:06:18;;;;;;;3.72;2.60;;;;;;;;;;5090859;28;20058;-80
2022/09/11 13:08:55;;;;;;;2.75;2.50;;;;;;;;;;5067076;28;20605;-85
2022/09/11 13:11:36;;;;;;;4.75;2.78;;;;;;;;;;5069451;28;20048;-84
2022/09/11 13:14:03;;;;;;;5.10;3.00;;;;;;;;;;5069701;28;20063;-79
2022/09/11 13:16:33;;;;;;;4.70;2.95;;;;;;;;;;5083682;28;20200;-81
2022/09/11 13:19:16;;;;;;;3.22;2.90;;;;;;;;;;5071760;28;20052;-79
2022/09/11 13:21:44;;;;;;;2.60;2.40;;;;;;;;;;5078770;28;20052;-80
2022/09/11 13:24:26;;;;;;;4.10;2.90;;;;;;;;;;5088147;28;20075;-79
2022/09/11 13:26:58;;;;;;;3.70;2.47;;;;;;;;;;5071610;28;20079;-82
2022/09/11 13:29:26;;;;;;;2.65;2.45;;;;;;;;;;5066578;28;20055;-80
2022/09/11 13:31:52;;;;;;;3.80;2.80;;;;;;;;;;5064497;28;20391;-85
2022/09/11 13:34:20;;;;;;;2.58;2.47;;;;;;;;;;5074421;28;20475;-86
2022/09/11 13:36:48;;;;;;;2.70;2.50;;;;;;;;;;5068460;28;20060;-81
2022/09/11 13:39:16;;;;;;;2.83;2.42;;;;;;;;;;5083514;28;20062;-81
2022/09/11 13:41:43;;;;;;;2.72;2.30;;;;;;;;;;5079313;28;20036;-80
2022/09/11 13:44:27;;;;;;;3.80;2.40;;;;;;;;;;5089599;28;20442;-79
2022/09/11 13:46:54;;;;;;;3.10;2.63;;;;;;;;;;5083434;28;20044;-79
2022/09/11 13:49:33;;;;;;;2.55;2.17;;;;;;;;;;5077684;28;20083;-79
2022/09/11 13:52:00;;;;;;;3.15;2.40;;;;;;;;;;5063605;28;20052;-80
2022/09/11 13:54:45;;;;;;;3.47;2.42;;;;;;;;;;5069336;28;20045;-80
2022/09/11 13:57:19;;;;;;;2.60;2.40;;;;;;;;;;5084985;28;20044;-80
2022/09/11 13:59:48;;;;;;;2.50;2.30;;;;;;;;;;5063420;28;20040;-81
2022/09/11 14:02:17;;;;;;;3.00;2.10;;;;;;;;;;5085126;28;20055;-81
2022/09/11 14:04:44;;;;;;;2.38;2.08;;;;;;;;;;5090926;28;20048;-81
2022/09/11 14:07:21;;;;;;;2.42;2.20;;;;;;;;;;5070108;28;20547;-80
2022/09/11 14:09:58;;;;;;;2.30;2.00;;;;;;;;;;5067713;28;20047;-81
2022/09/11 14:12:24;;;;;;;2.03;1.88;;;;;;;;;;5069853;28;20378;-81
2022/09/11 14:14:52;;;;;;;1.90;1.80;;;;;;;;;;5073436;28;20573;-81
2022/09/11 14:17:19;;;;;;;2.35;1.80;;;;;;;;;;5063949;28;20052;-81
2022/09/11 14:19:45;;;;;;;2.05;1.70;;;;;;;;;;5066828;28;20055;-81
2022/09/11 14:22:31;;;;;;;3.13;1.75;;;;;;;;;;5086611;28;20756;-81
2022/09/11 14:25:13;;;;;;;3.20;1.70;;;;;;;;;;5081322;28;20066;-81
2022/09/11 14:27:41;;;;;;;2.93;1.93;;;;;;;;;;5087631;28;20044;-81
2022/09/11 14:30:22;;;;;;;1.98;1.70;;;;;;;;;;5089869;28;20620;-81
2022/09/11 14:33:05;;;;;;;1.83;1.73;;;;;;;;;;5073475;28;20048;-81
2022/09/11 14:35:32;;;;;;;2.53;1.80;;;;;;;;;;5088065;28;20043;-80
2022/09/11 14:37:58;;;;;;;1.90;1.67;;;;;;;;;;5069675;28;20054;-81
2022/09/11 14:40:25;;;;;;;1.88;1.70;;;;;;;;;;5063482;28;20040;-82
2022/09/11 14:42:51;;;;;;;1.75;1.65;;;;;;;;;;5080627;28;20059;-82
2022/09/11 14:45:19;;;;;;;2.35;1.70;;;;;;;;;;5094294;28;20048;-82
2022/09/11 14:47:45;;;;;;;1.70;1.60;;;;;;;;;;5069041;28;20140;-82
2022/09/11 14:50:11;;;;;;;2.47;1.55;;;;;;;;;;5070514;28;20093;-82
2022/09/11 14:52:38;;;;;;;2.05;1.50;;;;;;;;;;5086515;28;20048;-83
2022/09/11 14:55:04;;;;;;;2.35;1.58;;;;;;;;;;5074086;28;20046;-82
2022/09/11 14:57:34;;;;;;;1.60;1.50;;;;;;;;;;5057895;28;20144;-82
2022/09/11 15:00:01;;;;;;;1.50;1.40;;;;;;;;;;5071296;28;20054;-81
2022/09/11 15:02:27;;;;;;;2.00;1.67;;;;;;;;;;5069413;28;20101;-81
2022/09/11 15:04:55;;;;;;;1.98;1.52;;;;;;;;;;5090272;28;20094;-82